Stuttgart Muni Carl Humphrey Field Information

FAA: SGT - ICAO: KSGT

Stuttgart Muni Carl Humphrey Field (Airport) Location

State Arkansas
County Prairie
City Stuttgart
Stuttgart Muni Carl Humphrey Field (Airport) is 7 miles north of Stuttgart, AR.
Latitude 34-35-58.1227N
Longitude 091-34-30.0010W
Elevation 224ft

Stuttgart Muni Carl Humphrey Field METARs

METAR KSGT 292356Z AUTO 17008KT 10SM CLR 12/05 A3010 RMK AO2 SLP193 T01220050 10167 20111 56006
Altimeter 30.10"
Temperature 12.2°C (54.0°F)
Wind 170° at 8KT
Clouds Skies are clear.
Visibility 10.0mi
Time observed: 2021-11-29T23:56:00Z

Stuttgart Muni Carl Humphrey Field (Airport) Details

Status Operational
Activation October 1943
Ownership Public
Usage Public
Chart MEMPHIS
ATC on-site No
Beacon schedule sunset-sunrise
Beacon color clear green

Stuttgart Muni Carl Humphrey Field (Airport) Contacts

Owner CITY OF STUTTGART
Owner address 304 S. MAPLE, STUTTGART, AR 72160
Owner phone 870-673-2960
Manager RICHARD WILLIAMSON
Manager address PO BOX 85, STAMPS, AR 71860
Manager phone 870-510-5874

Stuttgart Muni Carl Humphrey Field Radio Frequencies

Stuttgart Muni Carl Humphrey Field (Airport) Radio Frequencies

UNICOM 122.8
Common traffic advisory frequency (CTAF) 122.8